Terminal Aerodrome Forecast
Issued by NWS

Home | Current Version | Previous Version | Text Only | Print | Product List | Glossary On
Versions: 1 2 3 4 5 6 7 8 9 10 11 12 13 14 15 16 17
000
FTUS43 KMPX 171100
TAFRWF
TAF
KRWF 171127Z 1712/1812 31022G30KT P6SM OVC015
     FM172000 32016G25KT P6SM BKN025
     FM180200 32012KT P6SM OVC020
     FM180700 32007KT P6SM OVC015=

USA.gov is the U.S. government's official web portal to all federal, state and local government web resources and services.